Data for 12/12/2009

Time Sea-Level Adjusted Pressure Absolute Pressure Temperature Relative Humidity Dew Point   
(mb) (inHg) (mb) (inHg) (C) (F) (%) (C) (F)
00:05 1006 29.71 835 24.66 -6 21.3 58 -12.9 8.7
00:10 1006 29.71 835 24.66 -6 21.2 59 -12.8 8.9
00:15 1006 29.71 835 24.66 -6.1 21.1 57 -13.2 8.2
00:20 1006 29.71 835 24.66 -6.2 20.8 59 -12.9 8.8
00:25 1006 29.71 835 24.66 -6.2 20.8 57 -13.5 7.8
00:30 1006 29.71 835 24.66 -5.7 21.7 57 -13 8.6
00:35 1006 29.71 835 24.66 -5.8 21.6 59 -12.6 9.3
00:40 1006 29.71 835 24.66 -6.1 21 60 -12.6 9.3
00:45 1006 29.71 835 24.66 -6.2 20.9 61 -12.5 9.5
00:50 1006 29.71 835 24.66 -6.2 20.9 60 -12.7 9.2
00:55 1006 29.71 835 24.66 -6.3 20.6 62 -12.5 9.5
01:00 1006 29.71 835 24.66 -6.5 20.4 59 -13.2 8.3
01:05 1006 29.71 835 24.66 -6.1 21 60 -12.7 9.1
01:10 1006 29.71 835 24.66 -6 21.1 60 -12.6 9.2
01:15 1006 29.71 835 24.66 -5.8 21.5 57 -13 8.7
01:20 1006 29.71 835 24.66 -5.7 21.7 57 -13 8.6
01:25 1006 29.71 835 24.66 -5.5 22.1 56 -12.9 8.7
01:30 1006 29.71 835 24.66 -5.5 22.1 57 -12.8 8.9
01:35 1006 29.71 835 24.66 -5.6 21.9 56 -13 8.6
01:40 1006 29.71 835 24.66 -5.6 22 57 -12.8 8.9
01:45 1006 29.71 835 24.66 -5.5 22 58 -12.5 9.5
01:50 1006 29.71 835 24.66 -5.7 21.7 58 -12.7 9.2
01:55 1006 29.71 835 24.66 -5.7 21.7 58 -12.7 9.2
02:00 1006 29.71 835 24.66 -5.8 21.6 57 -13.1 8.5
02:05 1006 29.71 835 24.66 -5.7 21.8 55 -13.4 7.8
02:10 1006 29.71 835 24.66 -5.4 22.3 55 -13.1 8.4
02:15 1006 29.71 835 24.66 -5.5 22 55 -13.1 8.4
02:20 1006 29.71 835 24.66 -5.7 21.7 56 -13.2 8.3
02:25 1006 29.71 835 24.66 -5.9 21.4 57 -13.1 8.3
02:30 1006 29.71 835 24.66 -6 21.2 58 -13.1 8.5
02:35 1006 29.71 835 24.66 -6.2 20.9 58 -13.2 8.2
02:40 1006 29.71 835 24.66 -6.3 20.6 58 -13.3 8.1
02:45 1006 29.71 835 24.66 -6.5 20.3 59 -13.3 8
02:50 1006 29.71 835 24.66 -6.3 20.6 57 -13.4 7.8
02:55 1006 29.71 835 24.66 -6.2 20.8 57 -13.4 8
03:00 1006 29.71 835 24.66 -6 21.1 56 -13.4 7.8
03:05 1006 29.71 835 24.66 -6.2 20.9 56 -13.7 7.4
03:10 1006 29.71 835 24.66 -6.2 20.8 56 -13.6 7.5
03:15 1006 29.71 835 24.66 -6.5 20.4 56 -13.8 7.1
03:20 1006 29.71 835 24.66 -6.5 20.3 56 -13.8 7.1
03:25 1006 29.71 835 24.66 -6.5 20.2 57 -13.7 7.4
03:30 1006 29.71 835 24.66 -6.5 20.3 56 -13.9 6.9
03:35 1006 29.71 835 24.66 -6.2 20.9 54 -13.9 6.9
03:40 1006 29.71 835 24.66 -6.1 21 54 -14 6.8
03:45 1006 29.71 835 24.66 -6.2 20.8 57 -13.4 7.8
03:50 1006 29.71 835 24.66 -6.8 19.8 57 -13.9 6.9
03:55 1006 29.71 835 24.66 -6.5 20.2 57 -13.7 7.3
04:00 1006 29.71 835 24.66 -6.4 20.5 55 -14 6.8
04:05 1006 29.71 835 24.66 -5.9 21.3 58 -13 8.6
04:10 1006 29.71 835 24.66 -6.1 21.1 58 -13 8.7
04:15 1006 29.71 835 24.66 -6.2 20.8 58 -13.1 8.3
04:20 1006 29.71 835 24.66 -6.3 20.7 60 -12.7 9.1
04:25 1006 29.71 835 24.66 -6.4 20.4 63 -12.3 9.9
04:30 1006 29.71 835 24.66 -6.5 20.4 62 -12.6 9.3
04:35 1006 29.71 835 24.66 -6.1 21.1 56 -13.5 7.7
04:40 1006 29.71 835 24.66 -5.9 21.4 56 -13.2 8.2
04:45 1006 29.71 835 24.66 -6.1 20.9 55 -13.8 7.2
04:50 1006 29.71 835 24.66 -6.4 20.6 55 -14 6.8
04:55 1006 29.71 835 24.66 -6.4 20.5 55 -13.9 6.9
05:00 1006 29.71 835 24.66 -6.4 20.6 54 -14.1 6.6
05:05 1006 29.71 835 24.66 -6.4 20.4 56 -13.9 7.1
05:10 1006 29.71 835 24.66 -6.7 20 57 -13.8 7.1
05:15 1006 29.71 835 24.66 -6.8 19.8 57 -13.9 7
05:20 1006 29.71 835 24.66 -6.5 20.3 56 -13.9 6.9
05:25 1006 29.71 835 24.66 -6.5 20.3 56 -13.8 7.1
05:30 1005 29.68 835 24.66 -6.7 20 57 -13.9 7
05:35 1005 29.68 835 24.66 -6.8 19.8 57 -13.8 7.1
05:40 1005 29.68 835 24.66 -6.9 19.5 58 -14 6.9
05:45 1005 29.68 835 24.66 -6.9 19.5 58 -14 6.9
05:50 1005 29.68 835 24.66 -6.5 20.3 55 -14.1 6.6
05:55 1005 29.68 835 24.66 -6.2 20.8 58 -13.2 8.3
06:00 1005 29.68 835 24.66 -6.6 20.1 61 -12.8 8.9
06:05 1005 29.68 835 24.66 -6.8 19.8 58 -13.7 7.3
06:10 1005 29.68 835 24.66 -6.5 20.3 54 -14.3 6.2
06:15 1005 29.68 835 24.66 -6.3 20.6 57 -13.4 7.8
06:20 1005 29.68 835 24.66 -6.6 20.2 58 -13.5 7.7
06:25 1005 29.68 835 24.66 -6.3 20.6 57 -13.4 7.8
06:30 1005 29.68 835 24.66 -6.3 20.6 59 -13.1 8.5
06:35 1005 29.68 834 24.63 -6.7 19.9 59 -13.5 7.7
06:40 1005 29.68 834 24.63 -6.6 20.1 59 -13.3 8
06:45 1005 29.68 834 24.63 -6.9 19.5 56 -14.4 6.1
06:50 1005 29.68 834 24.63 -6.5 20.4 55 -14 6.8
06:55 1005 29.68 834 24.63 -5.9 21.3 53 -14.1 6.7
07:00 1005 29.68 834 24.63 -6.2 20.9 52 -14.5 6
07:05 1005 29.68 834 24.63 -6.5 20.3 56 -13.8 7.2
07:10 1005 29.68 834 24.63 -6.5 20.3 54 -14.3 6.3
07:15 1005 29.68 834 24.63 -6.1 21 52 -14.5 6
07:20 1005 29.68 834 24.63 -5.9 21.3 52 -14.3 6.3
07:25 1005 29.68 834 24.63 -6.2 20.8 52 -14.4 6
07:30 1005 29.68 834 24.63 -6.1 21 51 -14.6 5.7
07:35 1005 29.68 834 24.63 -6.3 20.7 55 -13.9 6.9
07:40 1005 29.68 834 24.63 -6.6 20.2 53 -14.6 5.7
07:45 1005 29.68 834 24.63 -6.4 20.5 53 -14.5 5.9
07:50 1005 29.68 834 24.63 -6.3 20.6 54 -14.2 6.5
07:55 1005 29.68 834 24.63 -6.4 20.4 55 -14 6.7
08:00 1005 29.68 834 24.63 -6.8 19.8 58 -13.7 7.4
08:05 1005 29.68 834 24.63 -6.8 19.8 57 -13.8 7.1
08:10 1005 29.68 834 24.63 -6.6 20.1 57 -13.7 7.3
08:15 1005 29.68 834 24.63 -6.4 20.5 56 -13.7 7.3
08:20 1005 29.68 834 24.63 -6.3 20.7 56 -13.6 7.5
08:25 1005 29.68 834 24.63 -5.9 21.4 57 -13.2 8.3
08:30 1005 29.68 834 24.63 -5.7 21.7 56 -13.3 8.1
08:35 1005 29.68 834 24.63 -5.5 22.1 55 -13.1 8.3
08:40 1005 29.68 834 24.63 -5.2 22.6 54 -13.1 8.4
08:45 1005 29.68 834 24.63 -5.2 22.6 55 -12.9 8.8
08:50 1005 29.68 834 24.63 -5.2 22.7 55 -13 8.7
08:55 1005 29.68 835 24.66 -5.1 22.9 53 -13.1 8.4
09:00 1005 29.68 834 24.63 -4.7 23.5 51 -13.4 7.9
09:05 1005 29.68 834 24.63 -4.5 24 52 -12.9 8.7
09:10 1005 29.68 835 24.66 -4.4 24.1 50 -13.3 8.1
09:15 1005 29.68 835 24.66 -4.2 24.4 50 -13.1 8.4
09:20 1005 29.68 835 24.66 -4.2 24.4 50 -13.1 8.5
09:25 1005 29.68 835 24.66 -4.3 24.3 52 -12.8 8.9
09:30 1005 29.68 835 24.66 -4.2 24.5 51 -12.9 8.9
09:35 1005 29.68 834 24.63 -4.1 24.7 51 -12.8 9
09:40 1005 29.68 835 24.66 -4.2 24.4 51 -12.8 9
09:45 1005 29.68 835 24.66 -4.2 24.5 51 -12.9 8.7
09:50 1005 29.68 835 24.66 -4.2 24.5 53 -12.4 9.7
09:55 1005 29.68 835 24.66 -4.3 24.3 52 -12.6 9.3
10:00 1005 29.68 835 24.66 -4.1 24.5 53 -12.4 9.6
10:05 1005 29.68 835 24.66 -4.1 24.7 52 -12.5 9.5
10:10 1005 29.68 835 24.66 -3.9 25 51 -12.7 9.2
10:15 1005 29.68 835 24.66 -3.7 25.3 50 -12.6 9.3
10:20 1005 29.68 835 24.66 -3.4 25.8 50 -12.4 9.7
10:25 1005 29.68 834 24.63 -3.2 26.2 50 -12.1 10.2
10:30 1005 29.68 834 24.63 -3.1 26.5 50 -12.1 10.2
10:35 1005 29.68 834 24.63 -2.9 26.8 50 -12 10.3
10:40 1005 29.68 834 24.63 -2.8 27 49 -12 10.4
10:45 1005 29.68 834 24.63 -2.5 27.5 48 -12 10.4
10:50 1005 29.68 834 24.63 -2.2 28.1 47 -12.1 10.2
10:55 1005 29.68 834 24.63 -1.7 28.9 47 -11.6 11
11:00 1005 29.68 834 24.63 -1.6 29 46 -11.8 10.8
11:05 1005 29.68 834 24.63 -1.7 28.9 46 -11.9 10.6
11:10 1005 29.68 834 24.63 -1.7 28.9 50 -10.7 12.7
11:15 1005 29.68 834 24.63 -1.5 29.2 51 -10.5 13.2
11:20 1005 29.68 834 24.63 -1.6 29.1 54 -9.8 14.4
11:25 1005 29.68 834 24.63 -1.8 28.8 49 -11.2 11.8
11:30 1005 29.68 834 24.63 -1.5 29.3 45 -12 10.4
11:35 1005 29.68 834 24.63 -1.4 29.6 47 -11.2 11.8
11:40 1005 29.68 834 24.63 -1.7 28.9 54 -9.9 14.1
11:45 1005 29.68 834 24.63 -1.9 28.6 54 -10 13.9
11:50 1005 29.68 834 24.63 -1.5 29.3 50 -10.5 13
11:55 1005 29.68 834 24.63 -1.3 29.7 48 -10.9 12.5
12:00 1005 29.68 834 24.63 -1.4 29.5 45 -11.9 10.6
12:05 1005 29.68 834 24.63 -1.5 29.3 44 -12.2 10
12:10 1004 29.65 834 24.63 -1.4 29.4 44 -12.1 10.2
12:15 1005 29.68 834 24.63 -1.2 29.9 45 -11.6 11
12:20 1004 29.65 834 24.63 -1.3 29.7 48 -10.8 12.5
12:25 1004 29.65 834 24.63 -1.3 29.6 45 -11.8 10.8
12:30 1004 29.65 834 24.63 -1.1 30.1 46 -11.3 11.7
12:35 1004 29.65 834 24.63 -1 30.2 47 -11.1 12
12:40 1004 29.65 833 24.6 -0.8 30.5 46 -11.1 11.9
12:45 1004 29.65 833 24.6 -0.6 30.9 46 -10.8 12.5
12:50 1004 29.65 833 24.6 -0.9 30.4 48 -10.6 13
12:55 1004 29.65 833 24.6 -1.1 29.9 48 -10.7 12.7
13:00 1004 29.65 833 24.6 -1.4 29.5 49 -10.7 12.8
13:05 1004 29.65 833 24.6 -1.3 29.7 47 -11.2 11.8
13:10 1004 29.65 833 24.6 -1.5 29.3 47 -11.4 11.6
13:15 1004 29.65 833 24.6 -1.5 29.3 47 -11.4 11.4
13:20 1004 29.65 833 24.6 -1.1 30 45 -11.5 11.3
13:25 1004 29.65 833 24.6 -1.3 29.6 47 -11.1 12
13:30 1004 29.65 833 24.6 -1.3 29.7 45 -11.9 10.7
13:35 1004 29.65 833 24.6 -1.3 29.7 47 -11.2 11.8
13:40 1004 29.65 833 24.6 -1.1 29.9 49 -10.5 13.1
13:45 1004 29.65 833 24.6 -1.2 29.9 46 -11.4 11.5
13:50 1004 29.65 833 24.6 -1.1 30 48 -10.9 12.4
13:55 1004 29.65 833 24.6 -1 30.1 46 -11.2 11.8
14:00 1004 29.65 833 24.6 -1 30.2 48 -10.8 12.6
14:05 1004 29.65 833 24.6 -1 30.2 45 -11.4 11.5
14:10 1004 29.65 833 24.6 -0.9 30.3 48 -10.6 13
14:15 1004 29.65 833 24.6 -0.8 30.6 48 -10.4 13.2
14:20 1004 29.65 833 24.6 -1.1 29.9 49 -10.5 13.1
14:25 1004 29.65 833 24.6 -1 30.1 47 -11.1 12.1
14:30 1004 29.65 833 24.6 -1 30.3 48 -10.7 12.7
14:35 1004 29.65 833 24.6 -0.9 30.3 50 -10.2 13.7
14:40 1004 29.65 833 24.6 -1.1 30.1 51 -10.1 13.8
14:45 1004 29.65 833 24.6 -1.1 30.1 50 -10.3 13.5
14:50 1004 29.65 833 24.6 -1 30.2 51 -10 14
14:55 1004 29.65 833 24.6 -1 30.2 50 -10.2 13.6
15:00 1004 29.65 833 24.6 -0.8 30.6 51 -9.7 14.6
15:05 1004 29.65 833 24.6 -0.7 30.8 51 -9.7 14.6
15:10 1004 29.65 833 24.6 -0.8 30.6 51 -9.6 14.7
15:15 1004 29.65 833 24.6 -0.8 30.6 53 -9.2 15.4
15:20 1004 29.65 833 24.6 -0.9 30.4 51 -9.8 14.4
15:25 1004 29.65 833 24.6 -1 30.3 54 -9.2 15.4
15:30 1004 29.65 833 24.6 -1.1 30.1 52 -9.6 14.7
15:35 1004 29.65 833 24.6 -1.1 29.9 53 -9.6 14.8
15:40 1004 29.65 833 24.6 -1.2 29.8 55 -9.2 15.5
15:45 1004 29.65 833 24.6 -1.3 29.7 55 -9.2 15.4
15:50 1004 29.65 833 24.6 -1.1 30 53 -9.4 15
15:55 1004 29.65 833 24.6 -0.9 30.4 53 -9.2 15.4
16:00 1004 29.65 833 24.6 -0.9 30.3 53 -9.3 15.3
16:05 1004 29.65 833 24.6 -1.3 29.6 54 -9.4 15.1
16:10 1004 29.65 833 24.6 -1.1 30 54 -9.3 15.2
16:15 1004 29.65 833 24.6 -0.8 30.7 52 -9.5 14.9
16:20 1004 29.65 833 24.6 -0.8 30.6 54 -9.1 15.7
16:25 1004 29.65 833 24.6 -0.4 31.2 54 -8.5 16.6
16:30 1004 29.65 833 24.6 0 32.1 52 -8.7 16.4
16:35 1004 29.65 833 24.6 0.3 32.5 53 -8.4 17
16:40 1004 29.65 833 24.6 1.1 33.9 51 -7.9 17.8
16:45 1004 29.65 833 24.6 1.4 34.5 51 -7.7 18.2
16:50 1004 29.65 833 24.6 1.4 34.6 51 -7.7 18.1
16:55 1004 29.65 833 24.6 1.6 34.9 50 -7.8 17.9
17:00 1004 29.65 833 24.6 2 35.6 47 -8.3 17.1
17:05 1004 29.65 833 24.6 2.1 35.7 48 -7.7 18.1
17:10 1004 29.65 833 24.6 1.9 35.4 49 -7.7 18.2
17:15 1004 29.65 833 24.6 1.9 35.4 46 -8.5 16.8
17:20 1004 29.65 833 24.6 2.1 35.7 46 -8.4 16.9
17:25 1004 29.65 833 24.6 2.1 35.8 46 -8.5 16.8
17:30 1004 29.65 833 24.6 2.1 35.7 48 -7.9 17.8
17:35 1004 29.65 833 24.6 1.8 35.3 48 -7.9 17.7
17:40 1004 29.65 833 24.6 1.8 35.3 48 -8.1 17.5
17:45 1003 29.62 833 24.6 1.8 35.2 48 -8.1 17.5
17:50 1003 29.62 833 24.6 1.7 35 50 -7.8 18
17:55 1003 29.62 833 24.6 1.6 34.8 46 -8.8 16.2
18:00 1003 29.62 833 24.6 1.9 35.3 47 -8.4 16.9
18:05 1003 29.62 832 24.57 1.8 35.2 46 -8.7 16.4
18:10 1003 29.62 832 24.57 1.9 35.5 46 -8.5 16.6
18:15 1003 29.62 832 24.57 2 35.5 46 -8.6 16.6
18:20 1003 29.62 832 24.57 1.9 35.4 47 -8.3 17
18:25 1003 29.62 832 24.57 1.7 35.1 47 -8.5 16.8
18:30 1003 29.62 832 24.57 1.7 35.1 47 -8.5 16.7
18:35 1003 29.62 832 24.57 1.8 35.2 47 -8.4 16.9
18:40 1003 29.62 832 24.57 1.8 35.2 47 -8.4 16.9
18:45 1003 29.62 832 24.57 1.7 35.1 47 -8.5 16.6
18:50 1003 29.62 832 24.57 1.6 34.8 49 -8.1 17.5
18:55 1003 29.62 832 24.57 1.4 34.5 49 -8.3 17
19:00 1003 29.62 832 24.57 1.5 34.8 48 -8.2 17.2
19:05 1003 29.62 832 24.57 1.7 35 50 -7.7 18.2
19:10 1003 29.62 832 24.57 1.1 34 56 -6.7 20
19:15 1003 29.62 832 24.57 -0.2 31.6 62 -6.7 20
19:20 1003 29.62 832 24.57 -1.1 29.9 66 -6.7 19.9
19:25 1003 29.62 832 24.57 -1.7 28.9 67 -7.1 19.3
19:30 1003 29.62 832 24.57 -2 28.4 69 -7.1 19.3
19:35 1003 29.62 832 24.57 -2.2 28 69 -7.1 19.2
19:40 1003 29.62 832 24.57 -2.3 27.9 69 -7.3 18.9
19:45 1003 29.62 832 24.57 -2.3 27.8 69 -7.3 18.8
19:50 1003 29.62 832 24.57 -2.3 27.8 68 -7.5 18.5
19:55 1003 29.62 832 24.57 -2.4 27.6 68 -7.6 18.3
20:00 1003 29.62 832 24.57 -2.4 27.6 68 -7.6 18.2
20:05 1003 29.62 832 24.57 -2.5 27.5 68 -7.6 18.3
20:10 1003 29.62 832 24.57 -2.5 27.6 67 -7.7 18.1
20:15 1003 29.62 832 24.57 -2.5 27.6 68 -7.6 18.3
20:20 1003 29.62 832 24.57 -2.5 27.5 68 -7.6 18.3
20:25 1003 29.62 832 24.57 -2.5 27.5 67 -7.7 18.1
20:30 1003 29.62 832 24.57 -2.7 27.2 69 -7.6 18.4
20:35 1003 29.62 832 24.57 -2.7 27.1 68 -7.8 18
20:40 1003 29.62 832 24.57 -2.7 27.1 68 -7.8 18
20:45 1003 29.62 832 24.57 -2.7 27.1 68 -7.9 17.8
20:50 1003 29.62 832 24.57 -3 26.6 70 -7.7 18.2
20:55 1003 29.62 832 24.57 -3.2 26.2 72 -7.6 18.4
21:00 1003 29.62 832 24.57 -3.4 25.8 68 -8.4 16.8
21:05 1003 29.62 832 24.57 -4 24.8 68 -9.2 15.5
21:10 1003 29.62 832 24.57 -4.9 23.2 69 -9.8 14.4
21:15 1003 29.62 832 24.57 -5.6 21.9 70 -10.2 13.7
21:20 1003 29.62 832 24.57 -6.2 20.9 71 -10.6 12.9
21:25 1003 29.62 832 24.57 -6.5 20.3 72 -10.8 12.6
21:30 1003 29.62 832 24.57 -7 19.3 72 -11.2 11.8
21:35 1003 29.62 832 24.57 -7.6 18.4 73 -11.7 11
21:40 1003 29.62 832 24.57 -8.2 17.2 74 -12 10.3
21:45 1003 29.62 832 24.57 -8.5 16.6 74 -12.3 9.8
21:50 1003 29.62 832 24.57 -8.7 16.4 75 -12.3 9.8
21:55 1003 29.62 832 24.57 -8.9 15.9 75 -12.6 9.3
22:00 1003 29.62 832 24.57 -9.3 15.3 75 -12.9 8.8
22:05 1003 29.62 832 24.57 -9.5 14.9 76 -13.1 8.5
22:10 1003 29.62 832 24.57 -9.7 14.6 75 -13.3 8
22:15 1003 29.62 832 24.57 -10 14 75 -13.6 7.6
22:20 1003 29.62 832 24.57 -10.2 13.7 75 -13.8 7.2
22:25 1003 29.62 832 24.57 -10.3 13.6 75 -13.9 7
22:30 1003 29.62 832 24.57 -10.3 13.4 75 -14 6.8
22:35 1003 29.62 832 24.57 -10.5 13.2 74 -14.2 6.5
22:40 1003 29.62 832 24.57 -10.6 13 74 -14.3 6.2
22:45 1003 29.62 832 24.57 -10.6 12.9 75 -14.2 6.5
22:50 1003 29.62 833 24.6 -10.4 13.2 74 -14.3 6.3
22:55 1003 29.62 833 24.6 -10.5 13.1 74 -14.3 6.3
23:00 1003 29.62 833 24.6 -10.6 13 74 -14.4 6.1
23:05 1003 29.62 833 24.6 -10.8 12.6 72 -14.8 5.3
23:10 1003 29.62 833 24.6 -11.2 11.9 73 -15.1 4.9
23:15 1004 29.65 833 24.6 -11.2 11.8 73 -15.1 4.9
23:20 1003 29.62 833 24.6 -11.3 11.6 74 -15.1 4.8
23:25 1003 29.62 833 24.6 -11.4 11.5 73 -15.3 4.5
23:30 1004 29.65 833 24.6 -11.7 10.9 73 -15.6 3.9
23:35 1004 29.65 833 24.6 -12 10.5 74 -15.7 3.8
23:40 1004 29.65 833 24.6 -12 10.5 74 -15.8 3.6
23:45 1004 29.65 833 24.6 -12.1 10.2 74 -15.8 3.5
23:50 1004 29.65 833 24.6 -12.2 10 74 -16 3.2
23:55 1004 29.65 833 24.6 -12.5 9.6 74 -16.2 2.9
24:00 1004 29.65 833 24.6 -12.6 9.3 75 -16.2 2.8